ADDS METAR Data INFO
IDs: Format: Raw Decoded Include TAF

Data at: 0719 UTC 19 Oct 2017

KAUM 190716Z AUTO 00000KT 10SM CLR 06/01 A3005 RMK AO2
KAUM 190655Z AUTO 00000KT 10SM CLR 07/M01 A3005 RMK AO2
KAUM 190635Z AUTO 00000KT 10SM CLR 08/M02 A3005 RMK AO2
KAUM 190616Z AUTO 00000KT 10SM CLR 08/M02 A3005 RMK AO2
KAUM 190555Z AUTO 00000KT 10SM CLR 09/M02 A3005 RMK AO2
KAUM 190535Z AUTO 34003KT 10SM CLR 09/M02 A3004 RMK AO2
KAUM 190516Z AUTO 34003KT 10SM CLR 09/M02 A3004 RMK AO2
KAUM 190455Z AUTO 33004KT 10SM CLR 09/M01 A3004 RMK AO2
KAUM 190435Z AUTO 33005KT 10SM CLR 11/M01 A3004 RMK AO2
KAUM 190416Z AUTO 32006KT 10SM CLR 11/M01 A3004 RMK AO2
KAUM 190355Z AUTO 31005KT 10SM CLR 11/M01 A3004 RMK AO2
KAUM 190335Z AUTO 31007KT 10SM CLR 12/M01 A3003 RMK AO2
KAUM 190316Z AUTO 31007KT 10SM CLR 12/M01 A3003 RMK AO2
KAUM 190255Z AUTO 31006KT 10SM CLR 12/00 A3002 RMK AO2
KAUM 190235Z AUTO 31005KT 10SM CLR 13/M01 A3001 RMK AO2
KAUM 190216Z AUTO 30006KT 10SM CLR 13/00 A3000 RMK AO2
KAUM 190155Z AUTO 30006KT 10SM CLR 14/M01 A3000 RMK AO2
KAUM 190135Z AUTO 30006KT 10SM CLR 14/00 A3000 RMK AO2
KAUM 190116Z AUTO 31006KT 10SM CLR 15/01 A2999 RMK AO2
KAUM 190055Z AUTO 31005KT 10SM CLR 16/03 A2998 RMK AO2
KAUM 190035Z AUTO 30004KT 10SM CLR 16/04 A2998 RMK AO2
KAUM 190016Z AUTO 28005KT 10SM CLR 17/04 A2997 RMK AO2
KAUM 182355Z AUTO 00000KT 10SM CLR 17/05 A2996 RMK AO2
KAUM 182335Z AUTO 28003KT 10SM CLR 18/04 A2995 RMK AO2
KAUM 182316Z AUTO 28005KT 10SM CLR 19/06 A2995 RMK AO2
KAUM 182255Z AUTO 28004KT 10SM CLR 19/07 A2993 RMK AO2
KAUM 182235Z AUTO 26004KT 10SM CLR 21/08 A2992 RMK AO2
KAUM 182216Z AUTO 24006KT 10SM CLR 21/07 A2991 RMK AO2
KAUM 182155Z AUTO 22004KT 10SM CLR 21/08 A2990 RMK AO2
KAUM 182135Z AUTO 24007KT 10SM CLR 21/07 A2990 RMK AO2
KAUM 182116Z AUTO 27007KT 10SM CLR 21/08 A2990 RMK AO2
KAUM 182055Z AUTO 31009G18KT 10SM CLR 21/08 A2991 RMK AO2
KAUM 182035Z AUTO 29013G17KT 10SM CLR 21/08 A2990 RMK AO2
KAUM 182015Z AUTO 27015G19KT 10SM CLR 22/08 A2989 RMK AO2
KAUM 181956Z AUTO 23014G19KT 10SM CLR 22/08 A2989 RMK AO2
KAUM 181935Z AUTO 24012G17KT 10SM CLR 22/08 A2988 RMK AO2
KAUM 181915Z AUTO 24014G19KT 10SM CLR 22/08 A2987 RMK AO2
KAUM 181856Z AUTO 20013KT 10SM CLR 21/09 A2987 RMK AO2
KAUM 181836Z AUTO 22013G19KT 10SM CLR 21/09 A2988 RMK AO2
KAUM 181815Z AUTO 21014G18KT 10SM CLR 20/08 A2988 RMK AO2
KAUM 181756Z AUTO 22014G21KT 10SM CLR 19/09 A2989 RMK AO2
KAUM 181735Z AUTO 19014KT 10SM CLR 19/09 A2986 RMK AO2
KAUM 181715Z AUTO 19015KT 10SM CLR 18/09 A2987 RMK AO2
KAUM 181656Z AUTO 19013G18KT 10SM CLR 18/09 A2987 RMK AO2
KAUM 181636Z AUTO 19014G18KT 10SM CLR 17/09 A2987 RMK AO2
KAUM 181615Z AUTO 18015KT 10SM CLR 16/09 A2988 RMK AO2
KAUM 181556Z AUTO 18013KT 10SM CLR 15/09 A2989 RMK AO2
KAUM 181536Z AUTO 20013KT 10SM CLR 14/09 A2989 RMK AO2
KAUM 181515Z AUTO 20012G17KT 10SM CLR 13/08 A2989 RMK AO2
KAUM 181456Z AUTO 20013KT 10SM CLR 12/08 A2989 RMK AO2
KAUM 181436Z AUTO 19011G18KT 10SM CLR 12/08 A2989 RMK AO2
KAUM 181415Z AUTO 18011KT 10SM CLR 11/08 A2989 RMK AO2
KAUM 181356Z AUTO 18010G14KT 10SM CLR 10/07 A2989 RMK AO2
KAUM 181335Z AUTO 18009KT 10SM CLR 09/07 A2990 RMK AO2
KAUM 181315Z AUTO 18008KT 10SM CLR 08/07 A2990 RMK AO2
KAUM 181256Z AUTO 17008KT 10SM CLR 08/06 A2990 RMK AO2
KAUM 181236Z AUTO 18009KT 10SM CLR 08/06 A2991 RMK AO2
KAUM 181215Z AUTO 17009KT 10SM CLR 08/06 A2990 RMK AO2
KAUM 181156Z AUTO 17007KT 10SM CLR 08/06 A2992 RMK AO2
KAUM 181136Z AUTO 18006KT 10SM CLR 08/06 A2993 RMK AO2
KAUM 181115Z AUTO 18006KT 10SM CLR 08/06 A2993 RMK AO2
KAUM 181056Z AUTO 17006KT 10SM CLR 08/06 A2993 RMK AO2
KAUM 181036Z AUTO 18007KT 10SM CLR 09/06 A2992 RMK AO2
KAUM 181015Z AUTO 17005KT 10SM CLR 08/06 A2992 RMK AO2
KAUM 180956Z AUTO 17005KT 10SM CLR 09/06 A2992 RMK AO2
KAUM 180936Z AUTO 18006KT 10SM CLR 09/06 A2992 RMK AO2
KAUM 180915Z AUTO 18006KT 10SM CLR 09/06 A2992 RMK AO2
KAUM 180856Z AUTO 18007KT 10SM CLR 09/07 A2993 RMK AO2
KAUM 180836Z AUTO 17006KT 10SM CLR 09/07 A2993 RMK AO2
KAUM 180815Z AUTO 18006KT 10SM CLR 09/06 A2994 RMK AO2
KAUM 180756Z AUTO 18007KT 10SM CLR 09/06 A2994 RMK AO2
KAUM 180736Z AUTO 17005KT 10SM CLR 09/06 A2995 RMK AO2
KAUM 180715Z AUTO 17005KT 10SM CLR 09/06 A2995 RMK AO2
KAUM 180656Z AUTO 17005KT 10SM CLR 09/06 A2996 RMK AO2
KAUM 180636Z AUTO 17004KT 10SM CLR 09/06 A2996 RMK AO2
KAUM 180615Z AUTO 17004KT 10SM CLR 09/06 A2997 RMK AO2
KAUM 180556Z AUTO 18004KT 10SM CLR 09/06 A2997 RMK AO2
KAUM 180536Z AUTO 18004KT 10SM CLR 09/06 A2997 RMK AO2
KAUM 180515Z AUTO 18004KT 10SM CLR 09/06 A2998 RMK AO2
KAUM 180456Z AUTO 18004KT 10SM CLR 10/06 A2998 RMK AO2
KAUM 180435Z AUTO 18005KT 10SM CLR 10/06 A2998 RMK AO2
KAUM 180416Z AUTO 18004KT 10SM CLR 11/06 A2998 RMK AO2
KAUM 180355Z AUTO 18005KT 10SM CLR 11/07 A2998 RMK AO2
KAUM 180336Z AUTO 18006KT 10SM CLR 11/07 A2999 RMK AO2
KAUM 180315Z AUTO 18006KT 10SM CLR 11/07 A2999 RMK AO2
KAUM 180255Z AUTO 18006KT 10SM CLR 13/07 A2998 RMK AO2
KAUM 180236Z AUTO 18007KT 10SM CLR 12/07 A2998 RMK AO2
KAUM 180215Z AUTO 16004KT 10SM CLR 13/06 A2998 RMK AO2
KAUM 180155Z AUTO 18004KT 10SM CLR 13/07 A2999 RMK AO2
KAUM 180136Z AUTO 17004KT 10SM CLR 14/07 A2999 RMK AO2
KAUM 180116Z AUTO 17003KT 10SM CLR 14/06 A2999 RMK AO2
KAUM 180055Z AUTO 17003KT 10SM CLR 16/06 A2999 RMK AO2
KAUM 180036Z AUTO 18004KT 10SM CLR 16/06 A2999 RMK AO2
KAUM 180015Z AUTO 19004KT 10SM CLR 16/06 A2999 RMK AO2
KAUM 172355Z AUTO 19004KT 10SM CLR 17/06 A2998 RMK AO2
KAUM 172336Z AUTO 18006KT 10SM CLR 17/07 A2998 RMK AO2
KAUM 172315Z AUTO 20005KT 10SM CLR 17/07 A2998 RMK AO2
KAUM 172255Z AUTO 20004KT 10SM CLR 19/07 A2997 RMK AO2
KAUM 172236Z AUTO 20009KT 10SM CLR 20/07 A2998 RMK AO2
KAUM 172215Z AUTO 19010KT 10SM CLR 21/07 A2998 RMK AO2
KAUM 172155Z AUTO 19010KT 10SM CLR 21/07 A2998 RMK AO2
KAUM 172136Z AUTO 19010KT 10SM 21/07 A2998 RMK AO2
KAUM 172116Z AUTO 18009KT 10SM 22/07 A2998 RMK AO2
KAUM 172055Z AUTO 19007KT 10SM 22/06 A2998 RMK AO2
KAUM 172036Z AUTO 21008KT 10SM 22/06 A2999 RMK AO2
KAUM 172016Z AUTO 19007KT 173V233 10SM 22/06 A2999 RMK AO2
KAUM 171955Z AUTO 19007KT 10SM 22/06 A3000 RMK AO2
KAUM 171936Z AUTO 22007KT 10SM 21/06 A3001 RMK AO2